Port Columbus International Airport
KCMH : now visible

Airfield :











YOU CAN JOIN US ON...

 
LOGIN :

Register | Disclaimer

   EN    FR    IT 

 









Legend :    VFR   Marginal VFR   IFR   Intensive IFR   Very Intensive IFR
Visi :
Ceiling :
>= 8 km
>= 3000ft
5 to 8 km
1000 to 3000 ft
1500m to 5 km
500 to 1000 ft
800 to 1500m
200 to 500 ft
< 800m
< 200 ft
Symbols :   Thunderstorms  Fog  Heavy snow  Heavy precipitations  Wind > 20 kt






- Airport Elevation : 815 ft
- IATA code : CMH


KCMH - Port Columbus International

CURRENT METAR :
  • 171651Z 00000KT 10SM FEW250 06/M04 A3005 RMK AO2 SLP184 T00611044 $

EXPIRED METARs :
  • 171551Z VRB03KT 10SM CLR 05/M06 A3009 RMK AO2 SLP196 T00501056 $
  • 171451Z 14005KT 10SM FEW250 03/M06 A3011 RMK AO2 SLP203 T00331061 58009 $

TAF KCMH
Valid from the 17 at 18:00 until the 18 at 18:00 UTC


171730Z 1718/1818 14007KT P6SM SCT250
FM172100 14007KT P6SM BKN200
FM180600 16004KT P6SM BKN200
FM181500 22005KT P6SM BKN100



MET'MAP, your aeronautical weather chart ! - Copyright ORBIFLY December 2007 - Disclaimer

ORBIFLY MET'MAP TEAM :

Programming & Development : Alexandra Zaïnal
Concept & Development : Baudouin d'Aumeries
Co-Development & Prog : Marc-Olivier Méhu
Technical & hardware support : Manuel Goepfert

Contact : metmap@orbifly.com




SOURCES & CREDITS :

   NOAA       Earth
Advisory